Terminal Aerodrome Forecast
Issued by NWS

Home | Current Version | Previous Version | Text Only | Print | Product List | Glossary On
Versions: 1 2 3 4 5 6 7 8 9 10 11 12 13 14 15 16 17 18 19 20 21
000
FTUS41 KAKQ 020400 AAB
TAFPHF
TAF AMD
KPHF 020434Z 0205/0224 25006KT P6SM BKN005
     FM020800 24008KT 5SM BR SCT006 OVC012
     FM021500 33008KT P6SM SCT015 OVC030
     FM021800 01010KT P6SM BKN050=

USA.gov is the U.S. government's official web portal to all federal, state and local government web resources and services.